createdAt,value
2019-03-09T00:02:57.866Z,3.63
2019-03-09T00:06:20.960Z,3.63
2019-03-09T00:09:44.134Z,4.23
2019-03-09T00:13:09.461Z,3.40
2019-03-09T00:16:32.556Z,3.83
2019-03-09T00:19:57.460Z,3.83
2019-03-09T00:23:40.247Z,3.40
2019-03-09T00:27:14.598Z,6.40
2019-03-09T00:30:50.003Z,6.67
2019-03-09T00:34:13.191Z,11.67
2019-03-09T00:37:36.713Z,14.70
2019-03-09T00:40:59.881Z,13.03
2019-03-09T00:44:23.849Z,9.17
2019-03-09T00:47:47.141Z,14.50
2019-03-09T00:51:10.242Z,7.30
2019-03-09T00:54:33.419Z,11.47
2019-03-09T00:57:56.557Z,6.03
2019-03-09T01:01:19.797Z,5.80
2019-03-09T01:04:42.982Z,5.30
2019-03-09T01:08:06.481Z,5.83
2019-03-09T01:11:29.799Z,10.47
2019-03-09T01:14:52.971Z,13.87
2019-03-09T01:18:16.075Z,9.93
2019-03-09T01:21:39.333Z,6.20
2019-03-09T01:25:02.395Z,6.47
2019-03-09T01:28:25.874Z,5.90
2019-03-09T01:31:48.998Z,4.93
2019-03-09T01:35:12.169Z,5.97
2019-03-09T01:38:35.285Z,6.20
2019-03-09T01:41:58.324Z,13.23
2019-03-09T01:45:21.443Z,15.33
2019-03-09T01:48:44.836Z,10.07
2019-03-09T01:52:07.959Z,8.20
2019-03-09T01:55:31.044Z,8.03
2019-03-09T01:58:54.135Z,14.60
2019-03-09T02:02:17.221Z,18.43
2019-03-09T02:05:40.295Z,20.20
2019-03-09T02:09:05.543Z,13.90
2019-03-09T02:12:30.631Z,22.63
2019-03-09T02:15:53.853Z,29.17
2019-03-09T02:19:17.265Z,27.07
2019-03-09T02:22:40.371Z,35.67
2019-03-09T02:26:03.581Z,34.50
2019-03-09T02:29:26.734Z,31.93
2019-03-09T02:32:49.805Z,17.63
2019-03-09T02:36:13.012Z,12.90
2019-03-09T02:39:41.060Z,11.73
2019-03-09T02:43:04.408Z,14.87
2019-03-09T02:46:27.583Z,12.60
2019-03-09T02:49:51.778Z,8.93
2019-03-09T02:53:15.232Z,8.37
2019-03-09T02:56:38.409Z,9.40
2019-03-09T03:00:03.434Z,8.47
2019-03-09T03:03:27.441Z,8.27
2019-03-09T03:06:50.463Z,9.17
2019-03-09T03:10:13.949Z,8.77
2019-03-09T03:13:37.318Z,8.37
2019-03-09T03:17:00.437Z,8.27
2019-03-09T03:20:23.869Z,7.30
2019-03-09T03:23:47.359Z,7.33
2019-03-09T03:27:11.397Z,8.03
2019-03-09T03:30:34.771Z,7.60
2019-03-09T03:33:57.795Z,7.47
2019-03-09T03:37:21.005Z,7.57
2019-03-09T03:40:44.088Z,7.43
2019-03-09T03:44:07.254Z,7.47
2019-03-09T03:47:30.516Z,7.07
2019-03-09T03:50:53.715Z,7.07
2019-03-09T03:54:17.158Z,6.43
2019-03-09T03:57:40.248Z,7.40
2019-03-09T04:01:03.317Z,6.30
2019-03-09T04:04:26.390Z,7.60
2019-03-09T04:07:49.568Z,8.43
2019-03-09T04:11:13.107Z,7.90
2019-03-09T04:14:36.996Z,8.63
2019-03-09T04:18:00.125Z,8.80
2019-03-09T04:21:23.260Z,9.63
2019-03-09T04:24:46.460Z,10.43
2019-03-09T04:28:09.904Z,10.70
2019-03-09T04:31:33.174Z,10.07
2019-03-09T04:34:56.383Z,9.33
2019-03-09T04:38:19.583Z,9.43
2019-03-09T04:41:42.703Z,8.13
2019-03-09T04:45:06.383Z,7.70
2019-03-09T04:48:29.482Z,8.30
2019-03-09T04:51:52.618Z,8.37
2019-03-09T04:55:15.714Z,9.67
2019-03-09T04:58:38.793Z,10.77
2019-03-09T05:02:01.880Z,8.57
2019-03-09T05:05:25.113Z,10.83
2019-03-09T05:09:04.588Z,9.93
2019-03-09T05:12:28.965Z,9.73
2019-03-09T05:15:52.036Z,11.23
2019-03-09T05:19:15.177Z,9.83
2019-03-09T05:22:38.363Z,10.53
2019-03-09T05:26:01.536Z,12.20
2019-03-09T05:29:24.644Z,11.03
2019-03-09T05:32:47.743Z,12.50
2019-03-09T05:36:10.883Z,12.30
2019-03-09T05:39:33.958Z,13.07
2019-03-09T05:42:57.210Z,13.53
2019-03-09T05:46:20.538Z,14.13
2019-03-09T05:49:44.208Z,16.13
2019-03-09T05:53:13.560Z,14.83
2019-03-09T05:56:43.364Z,16.03
2019-03-09T06:00:07.225Z,18.90
2019-03-09T06:03:30.336Z,18.30
2019-03-09T06:06:53.451Z,19.33
2019-03-09T06:10:16.554Z,19.50
2019-03-09T06:13:39.605Z,20.67
2019-03-09T06:17:02.689Z,23.77
2019-03-09T06:20:25.786Z,20.23
2019-03-09T06:23:49.270Z,20.07
2019-03-09T06:27:12.893Z,18.53
2019-03-09T06:30:36.225Z,19.50
2019-03-09T06:33:59.295Z,19.53
2019-03-09T06:37:22.493Z,20.63
2019-03-09T06:44:42.319Z,18.73
2019-03-09T06:48:06.548Z,19.37
2019-03-09T06:51:29.965Z,18.03
2019-03-09T06:54:53.165Z,17.70
2019-03-09T06:58:16.655Z,18.23
2019-03-09T07:01:39.925Z,18.27
2019-03-09T07:05:03.177Z,15.77
2019-03-09T07:08:26.379Z,16.43
2019-03-09T07:11:49.636Z,16.87
2019-03-09T07:15:31.162Z,15.27
2019-03-09T07:18:54.361Z,16.27
2019-03-09T07:22:19.833Z,16.17
2019-03-09T07:25:43.012Z,14.80
2019-03-09T07:29:06.201Z,15.97
2019-03-09T07:32:30.538Z,15.73
2019-03-09T07:36:22.202Z,14.60
2019-03-09T07:39:45.615Z,16.87
2019-03-09T07:43:09.323Z,15.73
2019-03-09T07:46:32.403Z,14.47
2019-03-09T07:49:55.739Z,14.03
2019-03-09T07:53:18.882Z,13.40
2019-03-09T07:56:42.159Z,13.07
2019-03-09T08:00:08.474Z,11.67
2019-03-09T08:03:31.985Z,11.13
2019-03-09T08:06:55.124Z,10.93
2019-03-09T08:10:18.590Z,10.47
2019-03-09T08:13:42.038Z,9.60
2019-03-09T08:17:05.243Z,10.53
2019-03-09T08:20:28.756Z,11.93
2019-03-09T08:23:52.384Z,14.13
2019-03-09T08:27:16.407Z,17.10
2019-03-09T08:30:40.459Z,17.33
2019-03-09T08:34:03.811Z,16.37
2019-03-09T08:37:27.033Z,11.07
2019-03-09T08:40:50.153Z,10.03
2019-03-09T08:44:13.273Z,9.83
2019-03-09T08:47:39.149Z,9.07
2019-03-09T08:51:02.709Z,10.40
2019-03-09T08:54:25.866Z,8.57
2019-03-09T08:57:49.216Z,9.90
2019-03-09T09:01:12.384Z,9.40
2019-03-09T09:04:35.710Z,8.00
2019-03-09T09:07:58.863Z,8.17
2019-03-09T09:11:22.001Z,9.93
2019-03-09T09:14:45.315Z,7.73
2019-03-09T09:18:09.434Z,7.50
2019-03-09T09:21:32.578Z,7.73
2019-03-09T09:24:55.769Z,6.97
2019-03-09T09:28:18.904Z,6.40
2019-03-09T09:31:42.387Z,7.53
2019-03-09T09:35:07.964Z,6.73
2019-03-09T09:38:31.197Z,6.20
2019-03-09T09:41:55.439Z,6.87
2019-03-09T09:45:18.922Z,6.40
2019-03-09T09:48:42.225Z,5.63
2019-03-09T09:52:12.301Z,5.80
2019-03-09T09:55:35.457Z,6.20
2019-03-09T09:58:58.530Z,5.43
2019-03-09T10:02:23.105Z,7.33
2019-03-09T10:05:46.467Z,5.60
2019-03-09T10:09:09.582Z,6.70
2019-03-09T10:16:31.664Z,6.57
2019-03-09T10:19:54.867Z,7.20
2019-03-09T10:23:17.993Z,6.50
2019-03-09T10:26:41.206Z,7.10
2019-03-09T10:30:04.935Z,6.13
2019-03-09T10:33:28.151Z,6.30
2019-03-09T10:36:51.571Z,8.57
2019-03-09T10:40:15.471Z,5.80
2019-03-09T10:43:39.144Z,8.17
2019-03-09T10:47:22.126Z,8.77
2019-03-09T10:50:45.678Z,5.93
2019-03-09T10:54:08.889Z,7.47
2019-03-09T10:57:32.054Z,6.80
2019-03-09T11:00:55.904Z,5.47
2019-03-09T11:04:27.322Z,5.50
2019-03-09T11:07:44.448Z,5.43
2019-03-09T11:11:07.652Z,4.83
2019-03-09T11:14:30.869Z,5.73
2019-03-09T11:17:53.945Z,5.20
2019-03-09T11:21:17.122Z,4.77
2019-03-09T11:24:40.465Z,4.43
2019-03-09T11:28:08.620Z,4.77
2019-03-09T11:31:31.784Z,5.43
2019-03-09T11:34:54.910Z,6.77
2019-03-09T11:38:19.053Z,4.70
2019-03-09T11:41:42.160Z,5.05
2019-03-09T11:45:06.739Z,4.53
2019-03-09T11:48:29.924Z,4.37
2019-03-09T11:51:53.648Z,4.60
2019-03-09T11:55:16.772Z,4.37
2019-03-09T11:58:40.081Z,4.25
2019-03-09T12:02:03.235Z,4.92
2019-03-09T12:05:26.451Z,4.65
2019-03-09T12:08:49.658Z,3.62
2019-03-09T12:12:12.819Z,4.80
2019-03-09T12:15:36.251Z,3.20
2019-03-09T12:18:59.487Z,3.58
2019-03-09T12:22:22.730Z,3.72
2019-03-09T12:25:45.821Z,4.22
2019-03-09T12:29:09.023Z,3.87
2019-03-09T12:32:32.248Z,3.15
2019-03-09T12:35:55.525Z,2.83
2019-03-09T12:39:18.595Z,4.17
2019-03-09T12:42:41.711Z,3.72
2019-03-09T12:46:04.859Z,3.20
2019-03-09T12:49:28.132Z,3.37
2019-03-09T12:52:51.271Z,4.08
2019-03-09T12:56:14.654Z,4.83
2019-03-09T12:59:38.091Z,5.90
2019-03-09T13:03:01.495Z,4.73
2019-03-09T13:06:24.860Z,6.10
2019-03-09T13:09:47.971Z,4.50
2019-03-09T13:13:11.077Z,5.55
2019-03-09T13:16:34.211Z,5.62
2019-03-09T13:19:57.736Z,6.47
2019-03-09T13:23:20.896Z,6.33
2019-03-09T13:26:46.964Z,5.87
2019-03-09T13:30:13.738Z,6.23
2019-03-09T13:33:37.063Z,7.00
2019-03-09T13:37:00.240Z,6.40
2019-03-09T13:40:23.487Z,5.90
2019-03-09T13:43:46.616Z,6.30
2019-03-09T13:47:09.777Z,6.33
2019-03-09T13:50:32.916Z,6.63
2019-03-09T13:53:56.234Z,6.10
2019-03-09T13:57:19.419Z,6.20
2019-03-09T14:00:42.516Z,6.10
2019-03-09T14:04:05.819Z,6.83
2019-03-09T14:07:29.395Z,7.25
2019-03-09T14:10:52.595Z,6.85
2019-03-09T14:14:15.940Z,7.17
2019-03-09T14:17:39.124Z,7.95
2019-03-09T14:21:02.338Z,7.30
2019-03-09T14:24:25.956Z,7.73
2019-03-09T14:27:49.144Z,8.53
2019-03-09T14:31:12.320Z,8.47
2019-03-09T14:34:35.439Z,8.67
2019-03-09T14:37:58.728Z,8.07
2019-03-09T14:41:21.937Z,10.77
2019-03-09T14:44:45.026Z,8.57
2019-03-09T14:48:08.392Z,9.00
2019-03-09T14:51:31.580Z,9.73
2019-03-09T14:54:54.670Z,7.87
2019-03-09T14:58:21.374Z,7.67
2019-03-09T15:01:44.757Z,8.70
2019-03-09T15:05:07.860Z,9.93
2019-03-09T15:08:30.936Z,7.63
2019-03-09T15:11:55.071Z,9.60
2019-03-09T15:15:18.227Z,7.17
2019-03-09T15:18:41.902Z,7.40
2019-03-09T15:22:05.214Z,8.43
2019-03-09T15:25:28.548Z,8.60
2019-03-09T15:28:52.710Z,7.87
2019-03-09T15:32:15.962Z,8.40
2019-03-09T15:35:39.111Z,6.60
2019-03-09T15:39:04.538Z,5.63
2019-03-09T15:42:29.562Z,4.03
2019-03-09T15:45:52.795Z,5.50
2019-03-09T15:49:16.026Z,2.23
2019-03-09T15:52:39.148Z,3.30
2019-03-09T15:56:02.462Z,2.83
2019-03-09T15:59:25.793Z,3.60
2019-03-09T16:02:49.458Z,3.67
2019-03-09T16:06:12.588Z,3.53
2019-03-09T16:09:35.873Z,3.23
2019-03-09T16:12:59.028Z,3.47
2019-03-09T16:16:22.156Z,4.17
2019-03-09T16:19:45.350Z,3.03
2019-03-09T16:23:08.930Z,3.63
2019-03-09T16:26:32.339Z,2.00
2019-03-09T16:29:55.527Z,2.53
2019-03-09T16:33:18.769Z,2.60
2019-03-09T16:36:41.872Z,2.03
2019-03-09T16:40:06.265Z,2.13
2019-03-09T16:43:29.881Z,2.20
2019-03-09T16:46:53.212Z,2.23
2019-03-09T16:50:16.379Z,1.93
2019-03-09T16:53:39.475Z,2.83
2019-03-09T16:57:02.625Z,2.97
2019-03-09T17:00:25.811Z,3.17
2019-03-09T17:03:49.026Z,2.17
2019-03-09T17:07:12.205Z,2.33
2019-03-09T17:10:35.425Z,2.50
2019-03-09T17:13:58.533Z,2.37
2019-03-09T17:17:23.461Z,2.53
2019-03-09T17:20:46.537Z,2.67
2019-03-09T17:24:10.923Z,3.67
2019-03-09T17:27:37.139Z,2.40
2019-03-09T17:31:00.288Z,3.10
2019-03-09T17:34:23.616Z,2.80
2019-03-09T17:37:46.777Z,3.07
2019-03-09T17:41:10.390Z,2.70
2019-03-09T17:44:33.937Z,3.20
2019-03-09T17:47:57.493Z,3.13
2019-03-09T17:51:21.051Z,3.83
2019-03-09T17:54:44.328Z,3.90
2019-03-09T17:58:07.788Z,3.43
2019-03-09T18:01:31.430Z,3.13
2019-03-09T18:04:54.801Z,3.03
2019-03-09T18:08:22.679Z,3.07
2019-03-09T18:11:46.395Z,4.10
2019-03-09T18:15:09.696Z,3.33
2019-03-09T18:18:32.951Z,3.40
2019-03-09T18:21:56.345Z,4.53
2019-03-09T18:25:19.566Z,2.90
2019-03-09T18:28:44.374Z,3.80
2019-03-09T18:32:08.021Z,4.37
2019-03-09T18:35:34.172Z,3.53
2019-03-09T18:38:57.629Z,4.13
2019-03-09T18:42:20.962Z,4.93
2019-03-09T18:45:44.123Z,3.60
2019-03-09T18:49:07.759Z,4.07
2019-03-09T18:52:31.022Z,4.63
2019-03-09T18:55:59.190Z,3.77
2019-03-09T18:59:19.876Z,4.33
2019-03-09T19:02:43.035Z,3.20
2019-03-09T19:06:06.253Z,3.93
2019-03-09T19:09:31.183Z,4.47
2019-03-09T19:12:54.292Z,3.03
2019-03-09T19:16:19.372Z,3.80
2019-03-09T19:19:43.416Z,3.87
2019-03-09T19:23:06.660Z,3.60
2019-03-09T19:26:30.101Z,3.97
2019-03-09T19:29:53.854Z,5.23
2019-03-09T19:33:17.394Z,4.33
2019-03-09T19:36:40.916Z,3.70
2019-03-09T19:40:08.301Z,2.60
2019-03-09T19:43:31.611Z,3.77
2019-03-09T19:46:54.792Z,4.70
2019-03-09T19:50:18.262Z,4.67
2019-03-09T19:53:41.485Z,5.47
2019-03-09T19:57:04.626Z,4.43
2019-03-09T20:00:28.159Z,4.47
2019-03-09T20:03:53.097Z,4.63
2019-03-09T20:07:16.468Z,4.57
2019-03-09T20:10:40.512Z,3.63
2019-03-09T20:14:05.820Z,5.37
2019-03-09T20:17:29.149Z,3.73
2019-03-09T20:20:52.457Z,4.07
2019-03-09T20:24:16.204Z,5.80
2019-03-09T20:27:40.322Z,4.90
2019-03-09T20:31:03.683Z,4.30
2019-03-09T20:34:27.112Z,3.10
2019-03-09T20:37:50.487Z,4.80
2019-03-09T20:41:14.123Z,4.47
2019-03-09T20:44:39.090Z,3.90
2019-03-09T20:48:13.952Z,3.33
2019-03-09T20:52:02.468Z,3.80
2019-03-09T20:55:26.226Z,4.57
2019-03-09T20:58:50.132Z,4.00
2019-03-09T21:02:13.600Z,4.27
2019-03-09T21:05:37.049Z,3.27
2019-03-09T21:09:00.866Z,3.67
2019-03-09T21:12:24.929Z,3.37
2019-03-09T21:15:48.585Z,3.67
2019-03-09T21:19:11.697Z,3.67
2019-03-09T21:22:35.974Z,3.00
2019-03-09T21:25:59.781Z,2.47
2019-03-09T21:29:23.968Z,3.90
2019-03-09T21:32:47.431Z,2.93
2019-03-09T21:36:10.701Z,3.50
2019-03-09T21:39:35.796Z,3.63
2019-03-09T21:42:59.172Z,3.57
2019-03-09T21:46:23.301Z,4.40
2019-03-09T21:49:46.651Z,3.20
2019-03-09T21:53:09.890Z,3.47
2019-03-09T21:56:33.364Z,3.17
2019-03-09T21:59:57.558Z,3.27
2019-03-09T22:03:22.508Z,2.90
2019-03-09T22:06:45.634Z,5.07
2019-03-09T22:10:09.376Z,4.57
2019-03-09T22:13:33.687Z,3.83
2019-03-09T22:16:57.195Z,4.90
2019-03-09T22:20:20.792Z,4.80
2019-03-09T22:23:44.515Z,6.57
2019-03-09T22:27:08.021Z,4.30
2019-03-09T22:31:14.132Z,5.00
2019-03-09T22:34:37.979Z,4.90
2019-03-09T22:38:03.062Z,4.43
2019-03-09T22:41:26.521Z,5.43
2019-03-09T22:44:50.352Z,5.50
2019-03-09T22:48:14.534Z,4.70
2019-03-09T22:51:38.158Z,4.87
2019-03-09T22:55:01.807Z,5.23
2019-03-09T22:58:25.201Z,6.03
2019-03-09T23:01:48.686Z,5.03
2019-03-09T23:05:12.619Z,5.30
2019-03-09T23:08:35.912Z,5.57
2019-03-09T23:12:00.447Z,6.37
2019-03-09T23:15:24.324Z,5.67
2019-03-09T23:18:48.118Z,5.40
2019-03-09T23:22:11.524Z,5.97
2019-03-09T23:25:34.977Z,5.30
2019-03-09T23:28:58.379Z,5.37
2019-03-09T23:32:21.719Z,4.60
2019-03-09T23:35:45.447Z,6.97
2019-03-09T23:39:09.538Z,6.20
2019-03-09T23:42:33.318Z,6.67
2019-03-09T23:45:56.890Z,6.87
2019-03-09T23:49:20.637Z,5.10
2019-03-09T23:52:44.873Z,6.83
2019-03-09T23:56:09.283Z,7.50
2019-03-09T23:59:33.477Z,8.63
